createdAt,value
2023-01-21T00:01:01.318Z,1.52
2023-01-21T00:03:28.153Z,1.70
2023-01-21T00:05:55.040Z,1.83
2023-01-21T00:08:21.942Z,1.50
2023-01-21T00:10:48.656Z,1.60
2023-01-21T00:13:15.646Z,1.50
2023-01-21T00:15:42.575Z,1.80
2023-01-21T00:18:09.452Z,1.40
2023-01-21T00:20:36.209Z,1.10
2023-01-21T00:23:03.131Z,1.33
2023-01-21T00:25:29.852Z,1.30
2023-01-21T00:27:56.711Z,1.35
2023-01-21T00:30:23.550Z,1.45
2023-01-21T00:32:50.583Z,1.60
2023-01-21T00:35:17.443Z,1.13
2023-01-21T00:37:44.250Z,1.73
2023-01-21T00:40:13.935Z,1.45
2023-01-21T00:42:40.799Z,1.77
2023-01-21T00:45:08.423Z,1.65
2023-01-21T00:47:35.259Z,1.90
2023-01-21T00:50:02.125Z,1.90
2023-01-21T00:52:28.988Z,1.80
2023-01-21T00:54:55.759Z,1.60
2023-01-21T00:57:22.635Z,1.70
2023-01-21T00:59:49.562Z,1.77
2023-01-21T01:02:16.425Z,1.30
2023-01-21T01:04:43.255Z,1.67
2023-01-21T01:07:11.221Z,1.40
2023-01-21T01:09:37.929Z,1.30
2023-01-21T01:12:04.993Z,1.50
2023-01-21T01:14:31.879Z,1.58
2023-01-21T01:16:58.648Z,1.60
2023-01-21T01:19:25.557Z,1.60
2023-01-21T01:21:52.417Z,1.73
2023-01-21T01:24:19.229Z,2.13
2023-01-21T01:26:45.949Z,1.80
2023-01-21T01:29:13.615Z,5.38
2023-01-21T01:31:40.562Z,4.28
2023-01-21T01:34:07.454Z,2.55
2023-01-21T01:36:34.274Z,1.70
2023-01-21T01:39:01.576Z,0.98
2023-01-21T01:41:30.325Z,0.95
2023-01-21T01:44:05.402Z,0.88
2023-01-21T01:46:36.919Z,0.93
2023-01-21T01:49:17.014Z,1.17
2023-01-21T01:51:49.094Z,2.10
2023-01-21T01:54:23.426Z,1.30
2023-01-21T01:56:53.110Z,1.30
2023-01-21T01:59:20.103Z,1.50
2023-01-21T02:01:46.998Z,1.30
2023-01-21T02:04:20.839Z,1.80
2023-01-21T02:06:49.033Z,1.35
2023-01-21T02:09:16.117Z,1.60
2023-01-21T02:11:43.012Z,1.50
2023-01-21T02:14:09.972Z,1.02
2023-01-21T02:17:07.430Z,1.05
2023-01-21T02:19:58.960Z,0.88
2023-01-21T02:22:31.817Z,1.10
2023-01-21T02:25:26.622Z,1.02
2023-01-21T02:28:02.269Z,1.00
2023-01-21T02:30:29.109Z,1.20
2023-01-21T02:33:17.732Z,1.30
2023-01-21T02:36:10.358Z,1.40
2023-01-21T02:39:01.963Z,1.73
2023-01-21T02:42:12.511Z,1.30
2023-01-21T02:45:08.930Z,1.60
2023-01-21T02:47:47.961Z,1.55
2023-01-21T02:50:19.596Z,2.40
2023-01-21T02:52:58.680Z,2.13
2023-01-21T02:55:32.088Z,2.30
2023-01-21T02:58:04.262Z,1.77
2023-01-21T03:00:59.229Z,1.85
2023-01-21T03:04:00.411Z,1.90
2023-01-21T03:06:46.257Z,1.73
2023-01-21T03:09:26.262Z,1.05
2023-01-21T03:12:32.011Z,1.13
2023-01-21T03:15:30.383Z,1.25
2023-01-21T03:18:06.635Z,1.30
2023-01-21T03:20:40.579Z,1.35
2023-01-21T03:23:13.696Z,1.40
2023-01-21T03:25:41.829Z,1.30
2023-01-21T03:28:13.780Z,1.67
2023-01-21T03:30:44.913Z,1.75
2023-01-21T03:33:15.251Z,1.67
2023-01-21T03:35:46.644Z,1.02
2023-01-21T03:38:19.385Z,1.38
2023-01-21T03:41:04.232Z,0.95
2023-01-21T03:43:31.644Z,1.20
2023-01-21T03:46:10.728Z,1.40
2023-01-21T03:48:46.065Z,1.50
2023-01-21T03:51:18.828Z,1.17
2023-01-21T03:53:45.866Z,1.02
2023-01-21T03:56:12.592Z,1.10
2023-01-21T03:58:39.265Z,1.15
2023-01-21T04:01:06.073Z,1.75
2023-01-21T04:03:32.970Z,1.70
2023-01-21T04:05:59.670Z,1.40
2023-01-21T04:08:26.419Z,1.45
2023-01-21T04:10:53.200Z,1.33
2023-01-21T04:13:20.122Z,1.45
2023-01-21T04:15:46.836Z,1.85
2023-01-21T04:18:13.590Z,1.20
2023-01-21T04:20:40.365Z,1.30
2023-01-21T04:23:07.116Z,1.50
2023-01-21T04:25:33.823Z,1.50
2023-01-21T04:28:00.632Z,1.20
2023-01-21T04:30:27.364Z,1.05
2023-01-21T04:32:54.168Z,1.10
2023-01-21T04:35:20.905Z,1.20
2023-01-21T04:37:47.807Z,0.98
2023-01-21T04:40:14.885Z,0.98
2023-01-21T04:42:42.923Z,1.30
2023-01-21T04:45:10.123Z,1.27
2023-01-21T04:47:40.934Z,1.02
2023-01-21T04:50:08.358Z,1.10
2023-01-21T04:52:35.034Z,1.33
2023-01-21T04:55:01.826Z,1.33
2023-01-21T04:57:28.742Z,1.42
2023-01-21T04:59:55.507Z,1.45
2023-01-21T05:02:22.340Z,1.35
2023-01-21T05:04:49.147Z,1.50
2023-01-21T05:07:15.910Z,1.25
2023-01-21T05:09:42.723Z,1.70
2023-01-21T05:12:10.155Z,1.50
2023-01-21T05:14:36.989Z,1.73
2023-01-21T05:17:03.810Z,1.70
2023-01-21T05:19:30.657Z,1.75
2023-01-21T05:21:57.407Z,1.67
2023-01-21T05:24:24.150Z,1.88
2023-01-21T05:26:50.902Z,2.00
2023-01-21T05:29:17.935Z,1.65
2023-01-21T05:31:45.084Z,1.15
2023-01-21T05:34:12.485Z,1.15
2023-01-21T05:36:39.549Z,1.35
2023-01-21T05:39:06.497Z,2.05
2023-01-21T05:41:33.344Z,1.40
2023-01-21T05:44:00.126Z,1.38
2023-01-21T05:46:26.891Z,1.70
2023-01-21T05:48:53.728Z,1.30
2023-01-21T05:51:20.469Z,1.33
2023-01-21T05:53:47.268Z,2.53
2023-01-21T05:56:14.072Z,2.20
2023-01-21T05:58:40.856Z,1.80
2023-01-21T06:01:07.813Z,2.53
2023-01-21T06:03:35.741Z,3.45
2023-01-21T06:06:02.551Z,2.45
2023-01-21T06:08:29.402Z,2.30
2023-01-21T06:10:56.516Z,1.95
2023-01-21T06:13:23.850Z,2.08
2023-01-21T06:15:53.892Z,2.05
2023-01-21T06:18:20.807Z,6.65
2023-01-21T06:20:47.540Z,4.80
2023-01-21T06:23:14.423Z,6.45
2023-01-21T06:25:42.219Z,5.13
2023-01-21T06:28:12.282Z,3.67
2023-01-21T06:30:39.463Z,2.65
2023-01-21T06:33:06.204Z,2.10
2023-01-21T06:35:33.348Z,2.00
2023-01-21T06:38:00.120Z,2.70
2023-01-21T06:40:26.875Z,1.95
2023-01-21T06:42:54.408Z,2.10
2023-01-21T06:45:21.461Z,2.88
2023-01-21T06:47:48.254Z,2.83
2023-01-21T06:50:17.500Z,2.95
2023-01-21T06:52:46.867Z,2.50
2023-01-21T06:55:14.597Z,2.30
2023-01-21T06:57:41.435Z,2.08
2023-01-21T07:00:09.170Z,2.75
2023-01-21T07:02:36.531Z,2.30
2023-01-21T07:05:05.013Z,2.50
2023-01-21T07:07:31.833Z,2.30
2023-01-21T07:09:58.704Z,2.90
2023-01-21T07:12:25.861Z,2.22
2023-01-21T07:14:52.608Z,2.88
2023-01-21T07:17:19.391Z,2.25
2023-01-21T07:19:46.102Z,2.38
2023-01-21T07:22:12.856Z,2.47
2023-01-21T07:24:39.579Z,1.98
2023-01-21T07:27:06.811Z,2.17
2023-01-21T07:29:33.633Z,2.40
2023-01-21T07:32:00.554Z,2.45
2023-01-21T07:34:27.244Z,2.10
2023-01-21T07:36:54.032Z,2.30
2023-01-21T07:39:20.834Z,2.33
2023-01-21T07:41:47.699Z,2.90
2023-01-21T07:44:14.465Z,2.80
2023-01-21T07:46:41.307Z,2.10
2023-01-21T07:49:08.215Z,2.92
2023-01-21T07:51:35.021Z,3.22
2023-01-21T07:54:01.711Z,4.00
2023-01-21T07:56:28.706Z,5.15
2023-01-21T07:58:55.584Z,3.35
2023-01-21T08:01:25.198Z,3.95
2023-01-21T08:03:52.171Z,7.90
2023-01-21T08:06:18.917Z,13.60
2023-01-21T08:08:45.776Z,5.35
2023-01-21T08:11:12.528Z,4.18
2023-01-21T08:13:39.401Z,4.95
2023-01-21T08:16:06.899Z,6.55
2023-01-21T08:18:33.772Z,4.35
2023-01-21T08:21:00.586Z,4.63
2023-01-21T08:23:27.650Z,4.18
2023-01-21T08:25:54.896Z,5.00
2023-01-21T08:28:22.815Z,6.10
2023-01-21T08:30:49.957Z,5.43
2023-01-21T08:33:16.846Z,5.68
2023-01-21T08:35:43.725Z,6.15
2023-01-21T08:38:10.737Z,6.47
2023-01-21T08:40:37.480Z,6.10
2023-01-21T08:43:07.267Z,8.10
2023-01-21T08:45:34.124Z,6.63
2023-01-21T08:48:03.846Z,5.47
2023-01-21T08:50:30.659Z,5.28
2023-01-21T08:52:57.862Z,5.05
2023-01-21T08:55:26.813Z,4.38
2023-01-21T08:57:58.551Z,3.25
2023-01-21T09:00:25.761Z,3.50
2023-01-21T09:02:53.683Z,3.33
2023-01-21T09:05:20.771Z,2.67
2023-01-21T09:07:47.621Z,2.03
2023-01-21T09:10:40.485Z,2.00
2023-01-21T09:13:08.917Z,3.60
2023-01-21T09:15:40.763Z,5.75
2023-01-21T09:18:07.999Z,2.50
2023-01-21T09:20:35.342Z,1.42
2023-01-21T09:23:02.166Z,2.60
2023-01-21T09:25:29.104Z,3.40
2023-01-21T09:27:56.111Z,3.38
2023-01-21T09:30:22.940Z,4.30
2023-01-21T09:32:49.765Z,3.42
2023-01-21T09:35:17.076Z,3.40
2023-01-21T09:37:44.127Z,2.63
2023-01-21T09:40:16.462Z,3.15
2023-01-21T09:42:43.875Z,2.90
2023-01-21T09:45:15.956Z,3.50
2023-01-21T09:47:46.548Z,2.50
2023-01-21T09:50:22.158Z,2.80
2023-01-21T09:52:53.924Z,2.80
2023-01-21T09:55:32.576Z,2.80
2023-01-21T09:58:12.413Z,2.95
2023-01-21T10:00:59.243Z,4.15
2023-01-21T10:03:55.776Z,3.58
2023-01-21T10:06:51.536Z,3.03
2023-01-21T10:10:00.327Z,3.97
2023-01-21T10:12:54.843Z,3.72
2023-01-21T10:15:43.230Z,3.55
2023-01-21T10:18:15.327Z,4.00
2023-01-21T10:20:50.680Z,5.50
2023-01-21T10:23:43.839Z,5.53
2023-01-21T10:26:13.837Z,6.63
2023-01-21T10:28:51.317Z,7.88
2023-01-21T10:36:45.961Z,5.60
2023-01-21T10:39:19.425Z,5.70
2023-01-21T10:42:13.511Z,3.92
2023-01-21T10:44:45.758Z,4.00
2023-01-21T10:47:24.772Z,5.63
2023-01-21T10:50:04.831Z,4.55
2023-01-21T10:52:43.656Z,6.70
2023-01-21T10:55:25.302Z,5.88
2023-01-21T10:58:11.553Z,15.93
2023-01-21T11:00:44.601Z,9.82
2023-01-21T11:03:41.586Z,5.40
2023-01-21T11:06:15.649Z,4.25
2023-01-21T11:08:46.763Z,5.18
2023-01-21T11:13:42.539Z,6.15
2023-01-21T11:16:09.750Z,9.63
2023-01-21T11:18:40.194Z,6.28
2023-01-21T11:21:22.610Z,5.35
2023-01-21T11:24:00.833Z,5.72
2023-01-21T11:26:29.103Z,4.78
2023-01-21T11:29:16.219Z,6.75
2023-01-21T11:31:48.712Z,5.38
2023-01-21T11:34:21.684Z,6.13
2023-01-21T11:36:59.388Z,6.68
2023-01-21T11:39:28.731Z,6.60
2023-01-21T11:41:58.352Z,6.60
2023-01-21T11:44:25.709Z,7.40
2023-01-21T11:46:52.809Z,7.38
2023-01-21T11:49:25.487Z,8.95
2023-01-21T11:52:13.143Z,7.57
2023-01-21T11:54:40.543Z,8.68
2023-01-21T11:57:20.103Z,8.80
2023-01-21T11:59:48.881Z,10.45
2023-01-21T12:02:22.946Z,9.40
2023-01-21T12:04:57.184Z,9.55
2023-01-21T12:07:32.465Z,8.10
2023-01-21T12:10:04.482Z,8.07
2023-01-21T12:12:44.236Z,7.47
2023-01-21T12:15:40.232Z,10.88
2023-01-21T12:18:21.358Z,23.08
2023-01-21T12:21:09.181Z,16.65
2023-01-21T12:23:55.703Z,8.70
2023-01-21T12:27:01.243Z,6.63
2023-01-21T12:29:39.946Z,6.80
2023-01-21T12:32:23.758Z,6.35
2023-01-21T12:35:15.806Z,8.65
2023-01-21T12:38:11.310Z,4.05
2023-01-21T12:40:47.595Z,2.40
2023-01-21T12:43:48.104Z,2.40
2023-01-21T12:46:27.847Z,2.20
2023-01-21T12:49:02.075Z,3.78
2023-01-21T12:51:41.148Z,2.05
2023-01-21T12:54:35.588Z,2.03
2023-01-21T12:57:24.295Z,1.85
2023-01-21T12:59:58.706Z,8.38
2023-01-21T13:02:30.961Z,6.57
2023-01-21T13:05:22.599Z,2.92
2023-01-21T13:08:21.700Z,2.53
2023-01-21T13:15:07.816Z,2.05
2023-01-21T13:17:50.316Z,2.13
2023-01-21T13:20:20.013Z,1.58
2023-01-21T13:23:19.954Z,1.92
2023-01-21T13:25:51.526Z,2.92
2023-01-21T13:28:18.537Z,1.80
2023-01-21T13:30:50.481Z,2.13
2023-01-21T13:33:34.655Z,2.42
2023-01-21T13:36:16.136Z,1.38
2023-01-21T13:39:15.742Z,1.20
2023-01-21T13:41:55.012Z,1.80
2023-01-21T13:44:27.745Z,0.90
2023-01-21T13:47:09.033Z,1.60
2023-01-21T13:50:19.019Z,2.97
2023-01-21T13:52:55.081Z,2.28
2023-01-21T13:55:22.026Z,2.33
2023-01-21T13:58:02.981Z,1.13
2023-01-21T14:00:44.628Z,1.67
2023-01-21T14:03:24.299Z,1.05
2023-01-21T14:06:10.580Z,0.90
2023-01-21T14:09:01.314Z,5.07
2023-01-21T14:11:37.265Z,6.90
2023-01-21T14:14:48.997Z,5.28
2023-01-21T14:18:08.353Z,4.07
2023-01-21T14:20:50.214Z,4.50
2023-01-21T14:23:52.336Z,3.22
2023-01-21T14:26:48.293Z,2.92
2023-01-21T14:29:33.922Z,3.85
2023-01-21T14:32:42.554Z,2.90
2023-01-21T14:38:02.779Z,2.60
2023-01-21T14:40:32.829Z,2.55
2023-01-21T14:43:00.395Z,3.72
2023-01-21T14:45:51.997Z,4.25
2023-01-21T14:48:41.808Z,3.70
2023-01-21T14:51:21.564Z,3.70
2023-01-21T14:53:51.350Z,2.10
2023-01-21T14:56:32.247Z,3.13
2023-01-21T14:59:02.962Z,3.97
2023-01-21T15:01:46.016Z,4.57
2023-01-21T15:04:20.232Z,3.92
2023-01-21T15:06:51.028Z,3.35
2023-01-21T15:09:29.473Z,3.38
2023-01-21T15:12:02.046Z,5.10
2023-01-21T15:14:36.052Z,3.40
2023-01-21T15:17:04.153Z,4.10
2023-01-21T15:19:34.578Z,4.57
2023-01-21T15:22:40.891Z,5.00
2023-01-21T15:25:19.533Z,4.30
2023-01-21T15:28:24.277Z,6.22
2023-01-21T15:31:04.010Z,6.28
2023-01-21T15:33:35.513Z,5.32
2023-01-21T15:36:03.880Z,5.13
2023-01-21T15:38:30.992Z,4.80
2023-01-21T15:41:04.925Z,3.90
2023-01-21T15:43:55.232Z,5.80
2023-01-21T15:46:37.241Z,4.10
2023-01-21T15:49:31.205Z,4.60
2023-01-21T15:52:18.047Z,3.42
2023-01-21T15:54:53.866Z,4.13
2023-01-21T15:57:32.607Z,4.93
2023-01-21T16:00:18.152Z,7.65
2023-01-21T16:02:59.162Z,8.15
2023-01-21T16:05:50.587Z,7.57
2023-01-21T16:08:32.441Z,6.97
2023-01-21T16:11:05.179Z,5.35
2023-01-21T16:13:59.474Z,6.10
2023-01-21T16:16:57.435Z,5.55
2023-01-21T16:19:30.231Z,5.85
2023-01-21T16:22:05.087Z,8.63
2023-01-21T16:24:34.095Z,7.60
2023-01-21T16:27:18.239Z,8.30
2023-01-21T16:29:45.714Z,6.50
2023-01-21T16:32:18.081Z,4.70
2023-01-21T16:34:45.926Z,6.68
2023-01-21T16:37:15.498Z,5.78
2023-01-21T16:39:43.592Z,7.10
2023-01-21T16:42:32.860Z,7.32
2023-01-21T16:45:00.550Z,5.88
2023-01-21T16:47:34.588Z,5.07
2023-01-21T16:50:02.464Z,5.22
2023-01-21T16:52:30.641Z,6.45
2023-01-21T16:54:57.799Z,5.82
2023-01-21T16:57:29.805Z,8.65
2023-01-21T16:59:58.139Z,5.95
2023-01-21T17:02:28.595Z,5.53
2023-01-21T17:04:57.793Z,7.22
2023-01-21T17:07:27.734Z,4.95
2023-01-21T17:10:05.041Z,5.78
2023-01-21T17:12:34.670Z,7.40
2023-01-21T17:15:14.438Z,7.82
2023-01-21T17:17:41.518Z,8.00
2023-01-21T17:20:34.745Z,8.48
2023-01-21T17:23:05.816Z,11.13
2023-01-21T17:25:35.043Z,10.45
2023-01-21T17:28:16.907Z,4.55
2023-01-21T17:30:44.573Z,3.50
2023-01-21T17:33:27.915Z,2.65
2023-01-21T17:36:09.285Z,4.35
2023-01-21T17:38:47.363Z,6.82
2023-01-21T17:41:41.726Z,5.50
2023-01-21T17:44:35.041Z,4.35
2023-01-21T17:47:02.404Z,5.85
2023-01-21T17:49:29.437Z,4.35
2023-01-21T17:51:56.966Z,7.07
2023-01-21T17:54:27.403Z,5.38
2023-01-21T17:56:56.733Z,7.13
2023-01-21T17:59:31.713Z,5.75
2023-01-21T18:01:59.148Z,9.02
2023-01-21T18:04:26.346Z,13.80
2023-01-21T18:06:55.519Z,9.13
2023-01-21T18:09:24.519Z,9.07
2023-01-21T18:11:54.636Z,9.40
2023-01-21T18:14:24.628Z,9.75
2023-01-21T18:16:54.004Z,9.27
2023-01-21T18:19:34.517Z,7.78
2023-01-21T18:22:03.188Z,7.95
2023-01-21T18:24:30.340Z,7.50
2023-01-21T18:26:59.380Z,7.22
2023-01-21T18:29:31.029Z,7.13
2023-01-21T18:31:58.904Z,7.43
2023-01-21T18:34:26.264Z,10.80
2023-01-21T18:36:53.423Z,13.50
2023-01-21T18:39:20.895Z,11.50
2023-01-21T18:41:48.303Z,9.45
2023-01-21T18:44:16.530Z,12.60
2023-01-21T18:46:43.795Z,12.55
2023-01-21T18:49:21.170Z,12.15
2023-01-21T18:51:48.398Z,14.43
2023-01-21T18:54:16.828Z,13.35
2023-01-21T18:56:44.618Z,13.55
2023-01-21T18:59:14.739Z,15.82
2023-01-21T19:01:43.290Z,16.42
2023-01-21T19:04:14.319Z,13.23
2023-01-21T19:06:42.678Z,11.27
2023-01-21T19:09:19.527Z,11.77
2023-01-21T19:11:46.785Z,11.85
2023-01-21T19:14:13.768Z,10.98
2023-01-21T19:16:42.937Z,10.57
2023-01-21T19:19:16.169Z,11.40
2023-01-21T19:21:43.500Z,12.95
2023-01-21T19:24:12.219Z,14.20
2023-01-21T19:26:39.722Z,17.05
2023-01-21T19:29:15.354Z,14.25
2023-01-21T19:31:42.728Z,14.52
2023-01-21T19:34:10.464Z,15.10
2023-01-21T19:36:39.157Z,13.30
2023-01-21T19:39:14.381Z,10.52
2023-01-21T19:41:41.376Z,11.40
2023-01-21T19:44:08.449Z,12.88
2023-01-21T19:46:35.415Z,13.15
2023-01-21T19:49:14.136Z,18.73
2023-01-21T19:51:41.358Z,31.63
2023-01-21T19:54:08.241Z,25.85
2023-01-21T19:56:35.380Z,34.75
2023-01-21T19:59:03.785Z,33.03
2023-01-21T20:01:30.716Z,21.30
2023-01-21T20:04:00.568Z,10.10
2023-01-21T20:06:32.464Z,7.05
2023-01-21T20:09:00.431Z,6.03
2023-01-21T20:11:27.457Z,7.15
2023-01-21T20:13:54.401Z,8.20
2023-01-21T20:16:23.568Z,10.35
2023-01-21T20:18:50.652Z,10.48
2023-01-21T20:21:17.523Z,6.35
2023-01-21T20:23:44.474Z,7.35
2023-01-21T20:26:17.211Z,5.03
2023-01-21T20:28:47.823Z,4.47
2023-01-21T20:31:14.868Z,4.85
2023-01-21T20:33:43.901Z,5.18
2023-01-21T20:36:21.297Z,2.88
2023-01-21T20:38:48.465Z,3.08
2023-01-21T20:41:15.856Z,3.50
2023-01-21T20:43:43.106Z,2.80
2023-01-21T20:46:20.622Z,4.10
2023-01-21T20:48:48.120Z,2.45
2023-01-21T20:51:15.177Z,1.98
2023-01-21T20:53:42.190Z,2.03
2023-01-21T20:56:29.990Z,2.53
2023-01-21T20:58:57.165Z,2.90
2023-01-21T21:01:25.969Z,3.53
2023-01-21T21:03:53.139Z,2.08
2023-01-21T21:06:22.322Z,3.38
2023-01-21T21:08:49.849Z,3.33
2023-01-21T21:11:17.990Z,2.45
2023-01-21T21:13:48.479Z,3.90
2023-01-21T21:16:24.366Z,7.28
2023-01-21T21:18:51.841Z,4.45
2023-01-21T21:21:20.547Z,3.58
2023-01-21T21:23:49.025Z,5.28
2023-01-21T21:26:20.000Z,6.20
2023-01-21T21:28:47.233Z,5.10
2023-01-21T21:31:15.905Z,4.10
2023-01-21T21:33:43.868Z,5.07
2023-01-21T21:36:19.055Z,4.72
2023-01-21T21:38:46.603Z,6.85
2023-01-21T21:41:35.074Z,6.50
2023-01-21T21:44:01.932Z,6.00
2023-01-21T21:46:47.725Z,5.47
2023-01-21T21:49:14.605Z,5.07
2023-01-21T21:51:41.904Z,5.47
2023-01-21T21:54:10.726Z,5.35
2023-01-21T21:56:37.602Z,14.13
2023-01-21T21:59:06.243Z,7.28
2023-01-21T22:01:34.847Z,6.60
2023-01-21T22:04:03.048Z,9.20
2023-01-21T22:06:30.776Z,9.18
2023-01-21T22:09:01.389Z,10.13
2023-01-21T22:11:29.111Z,15.30
2023-01-21T22:13:56.740Z,12.23
2023-01-21T22:16:27.251Z,10.80
2023-01-21T22:18:55.125Z,9.73
2023-01-21T22:21:33.130Z,12.50
2023-01-21T22:24:01.053Z,18.27
2023-01-21T22:26:28.736Z,13.20
2023-01-21T22:28:56.033Z,13.55
2023-01-21T22:31:28.708Z,12.00
2023-01-21T22:33:56.633Z,13.35
2023-01-21T22:36:26.009Z,11.95
2023-01-21T22:38:53.279Z,11.63
2023-01-21T22:41:23.228Z,10.60
2023-01-21T22:43:56.362Z,10.07
2023-01-21T22:46:30.097Z,15.35
2023-01-21T22:48:57.673Z,12.73
2023-01-21T22:51:28.060Z,13.80
2023-01-21T22:54:01.143Z,12.45
2023-01-21T22:56:49.960Z,12.43
2023-01-21T22:59:17.752Z,12.27
2023-01-21T23:01:46.393Z,11.63
2023-01-21T23:04:13.315Z,11.18
2023-01-21T23:06:40.107Z,11.32
2023-01-21T23:09:09.515Z,11.60
2023-01-21T23:11:38.542Z,10.73
2023-01-21T23:14:05.240Z,8.63
2023-01-21T23:16:32.234Z,8.15
2023-01-21T23:18:59.015Z,7.05
2023-01-21T23:21:25.965Z,8.63
2023-01-21T23:23:52.803Z,9.18
2023-01-21T23:26:20.390Z,12.40
2023-01-21T23:28:47.439Z,9.60
2023-01-21T23:31:16.489Z,9.02
2023-01-21T23:33:43.758Z,8.85
2023-01-21T23:36:13.727Z,8.98
2023-01-21T23:38:42.076Z,8.73
2023-01-21T23:41:12.262Z,9.27
2023-01-21T23:43:39.714Z,7.90
2023-01-21T23:46:16.828Z,7.55
2023-01-21T23:48:43.852Z,6.32
2023-01-21T23:51:13.423Z,7.45
2023-01-21T23:53:42.774Z,5.88
2023-01-21T23:56:13.335Z,4.85
2023-01-21T23:58:40.360Z,5.15
